Nearby METAR Reports

 

KSJC - San Jose, California, USA
Distance from station: KO 14km
Pivitetty: 01/04/2023 14:53
Few Clouds
Few Clouds
 Tuulen suunta EKA
Tuuli: EKA 6 km/h
Lmptila: 4°C
Kastepiste: 2°C
Kosteus: 87%
Ilmanpaine: 1023.7 hPa
Clouds: Few Clouds
Visibility: 16 km
Cloud details: Few Clouds 183 m
2023/04/01 12:53 KSJC 011253Z 15003KT 10SM FEW006 04/02 A3023 RMK AO2 SLP237 FU FEW006 T00440017 $
KNUQ - Moffett Nas/Mtn, California, USA
Distance from station: P 14km
Pivitetty: 18/03/2023 19:20
NOT Current
Selket
Selket
 Tuulen suunta PKO
Tuuli: PKO 9 km/h
Lmptila: 17°C
Kastepiste: 11°C
Kosteus: 68%
Ilmanpaine: 1016.3 hPa
Clouds: Selket
Visibility: 16 km
2023/03/18 18:20 KNUQ 181820Z AUTO 03005KT 10SM CLR 17/11 A3001 RMK AO2
 
KPAO - Palo Alto, California, USA
Distance from station: PLU 23km
Pivitetty: 01/04/2023 05:47
NOT Current
Few Clouds
Few Clouds
 Tuulen suunta LLU
Tuuli: LLU 7 km/h
Lmptila: 9°C
Wind Chill: 8°C
Kastepiste: 4°C
Kosteus: 71%
Ilmanpaine: 1024.7 hPa
Clouds: Few Clouds
Visibility: 16 km
Cloud details: Few Clouds 1219 m
2023/04/01 03:47 KPAO 010347Z 29004KT 10SM FEW040 09/04 A3026 RMK LAST
KRHV - San Jose/Reid, California, USA
Distance from station: IKO 19km
Pivitetty: 01/04/2023 06:55
NOT Current
Few Clouds
Few Clouds
 Tuulen suunta LU
Tuuli: LU 7 km/h
Lmptila: 9°C
Wind Chill: 8°C
Kastepiste: 3°C
Kosteus: 66%
Ilmanpaine: 1025.1 hPa
Clouds: Few Clouds
Visibility: 16 km
Cloud details: Few Clouds 1829 m
2023/04/01 04:55 KRHV 010455Z 31004KT 10SM FEW060 09/03 A3027 RMK LAST
 
KOAK - Oakland, California, USA
Distance from station: PLU 50km
Pivitetty: 01/04/2023 14:53
Few Clouds
Few Clouds
 Tuulen suunta IKO
Tuuli: IKO 6 km/h
Lmptila: 6°C
Kastepiste: 3°C
Kosteus: 81%
Ilmanpaine: 1024 hPa
Clouds: Few Clouds
Visibility: 16 km
Cloud details: Few Clouds 366 m
Few Clouds 3048 m
2023/04/01 12:53 KOAK 011253Z 07003KT 10SM FEW012 FEW100 06/03 A3024 RMK AO2 SLP238 T00560033
KSQL - San Carlos Airpo, California, USA
Distance from station: LU 34km
Pivitetty: 01/04/2023 15:15
Selket
Selket
 Tuulen suunta calm
Tuuli: Tyynt
Lmptila: 5°C
Kastepiste: 3°C
Kosteus: 87%
Ilmanpaine: 1024 hPa
Clouds: Selket
Visibility: 13 km
2023/04/01 13:15 KSQL 011315Z AUTO 00000KT 8SM CLR 05/03 A3024 RMK AO2
 
KSFO - San Francisco, California, USA
Distance from station: LU 49km
Pivitetty: 01/04/2023 14:56
Selket
Selket
 Tuulen suunta LO
Tuuli: LO 6 km/h
Lmptila: 7°C
Kastepiste: 4°C
Kosteus: 81%
Ilmanpaine: 1023.7 hPa
Clouds: Selket
Visibility: 16 km
2023/04/01 12:56 KSFO 011256Z 23003KT 10SM CLR 07/04 A3023 RMK AO2 SLP236 T00670039
KE16 - San Martin, California, USA
Distance from station: IKA 43km
Pivitetty: 01/04/2023 15:15
Vaihetelvaa
Vaihetelvaa
 Tuulen suunta calm
Tuuli: Tyynt
Lmptila: 4°C
Kastepiste: 4°C
Kosteus: 100%
Ilmanpaine: 1024.4 hPa
Clouds: Vaihetelvaa
Visibility: 16 km
Cloud details: Vaihetelvaa 975 m
2023/04/01 13:15 KE16 011315Z AUTO 00000KT 10SM OVC032 04/04 A3025 RMK AO2
 
KWVI - Watsonville, California, USA
Distance from station: EKA 44km
Pivitetty: 01/04/2023 14:53
Selket
Selket
 Tuulen suunta PLU
Tuuli: PLU 6 km/h
Lmptila: 4°C
Kastepiste: 2°C
Kosteus: 87%
Ilmanpaine: 1024 hPa
Clouds: Selket
Visibility: 16 km
2023/04/01 12:53 KWVI 011253Z AUTO 34003KT 10SM CLR 04/02 A3024 RMK AO2 SLP240 T00390022
KHAF - Half Moon Bay, California, USA
Distance from station: LLU 50km
Pivitetty: 01/04/2023 15:15
Selket
Selket
 Tuulen suunta calm
Tuuli: Tyynt
Lmptila: 3°C
Kastepiste: 2°C
Kosteus: 93%
Ilmanpaine: 1023.7 hPa
Clouds: Selket
Visibility: 16 km
2023/04/01 13:15 KHAF 011315Z AUTO 00000KT 10SM CLR 03/02 A3023 RMK AO2
 
KHWD - Hayward, California, USA
Distance from station: P 44km
Pivitetty: 01/04/2023 14:54
Selket
Selket
 Tuulen suunta I
Tuuli: I 7 km/h
Lmptila: 6°C
Wind Chill: 4°C
Kastepiste: 3°C
Kosteus: 81%
Ilmanpaine: 1023.7 hPa
Clouds: Selket
Visibility: 16 km
2023/04/01 12:54 KHWD 011254Z AUTO 08004KT 10SM CLR 06/03 A3023 RMK AO2 SLP246 T00560033
KLVK - Livermore, California, USA
Distance from station: PKO 51km
Pivitetty: 01/04/2023 14:53
Selket
Selket
 Tuulen suunta calm
Tuuli: Tyynt
Lmptila: 3°C
Kastepiste: 2°C
Kosteus: 93%
Ilmanpaine: 1023.4 hPa
Clouds: Selket
Visibility: 16 km
2023/04/01 12:53 KLVK 011253Z AUTO 00000KT 10SM CLR 03/02 A3022 RMK AO2 SLP233 T00330022